createdAt,value
2022-10-13T00:00:52.940Z,7.60
2022-10-13T00:03:21.702Z,7.30
2022-10-13T00:05:51.770Z,6.60
2022-10-13T00:08:21.980Z,6.90
2022-10-13T00:10:51.919Z,5.80
2022-10-13T00:13:21.307Z,7.83
2022-10-13T00:15:51.069Z,9.37
2022-10-13T00:18:19.280Z,8.70
2022-10-13T00:20:49.323Z,10.17
2022-10-13T00:23:18.512Z,9.30
2022-10-13T00:25:48.413Z,8.00
2022-10-13T00:28:18.917Z,9.50
2022-10-13T00:30:47.977Z,9.17
2022-10-13T00:33:17.403Z,7.37
2022-10-13T00:35:46.763Z,9.00
2022-10-13T00:38:15.209Z,7.07
2022-10-13T00:40:47.840Z,8.00
2022-10-13T00:43:19.609Z,6.03
2022-10-13T00:45:50.032Z,6.33
2022-10-13T00:48:22.378Z,7.07
2022-10-13T00:50:50.871Z,6.20
2022-10-13T00:53:22.776Z,6.97
2022-10-13T00:55:52.403Z,6.90
2022-10-13T00:58:24.225Z,7.50
2022-10-13T01:00:53.998Z,6.97
2022-10-13T01:03:23.703Z,7.37
2022-10-13T01:05:54.679Z,6.70
2022-10-13T01:08:26.860Z,7.03
2022-10-13T01:11:04.881Z,6.10
2022-10-13T01:13:39.786Z,6.93
2022-10-13T01:16:13.813Z,6.90
2022-10-13T01:18:50.804Z,7.77
2022-10-13T01:21:25.844Z,7.33
2022-10-13T01:24:26.403Z,7.80
2022-10-13T01:27:06.298Z,9.10
2022-10-13T01:30:00.914Z,8.63
2022-10-13T01:32:32.408Z,8.67
2022-10-13T01:35:09.276Z,9.17
2022-10-13T01:37:46.636Z,8.70
2022-10-13T01:40:23.478Z,8.10
2022-10-13T01:42:57.937Z,7.83
2022-10-13T01:45:32.209Z,9.37
2022-10-13T01:48:01.938Z,8.50
2022-10-13T01:50:30.743Z,9.77
2022-10-13T01:53:02.219Z,9.90
2022-10-13T01:55:31.582Z,9.80
2022-10-13T01:57:59.545Z,8.50
2022-10-13T02:00:35.523Z,9.63
2022-10-13T02:03:11.690Z,9.47
2022-10-13T02:05:49.369Z,8.33
2022-10-13T02:08:25.932Z,16.60
2022-10-13T02:11:02.640Z,10.07
2022-10-13T02:13:33.785Z,9.17
2022-10-13T02:16:03.642Z,7.77
2022-10-13T02:18:35.336Z,6.97
2022-10-13T02:21:04.523Z,8.47
2022-10-13T02:23:33.026Z,9.00
2022-10-13T02:26:01.295Z,8.03
2022-10-13T02:28:30.135Z,7.47
2022-10-13T02:30:58.155Z,8.37
2022-10-13T02:33:27.527Z,8.40
2022-10-13T02:35:55.497Z,8.83
2022-10-13T02:38:23.532Z,9.17
2022-10-13T02:40:51.514Z,8.20
2022-10-13T02:43:19.590Z,8.30
2022-10-13T02:45:53.820Z,8.97
2022-10-13T02:48:21.726Z,9.80
2022-10-13T02:50:51.101Z,8.70
2022-10-13T02:53:19.050Z,7.83
2022-10-13T02:55:48.367Z,9.57
2022-10-13T02:58:16.624Z,8.80
2022-10-13T03:00:49.874Z,9.23
2022-10-13T03:03:18.256Z,9.53
2022-10-13T03:05:46.279Z,8.90
2022-10-13T03:08:15.594Z,8.73
2022-10-13T03:10:43.566Z,9.57
2022-10-13T03:13:11.630Z,10.50
2022-10-13T03:15:39.603Z,10.80
2022-10-13T03:18:07.618Z,10.87
2022-10-13T03:20:36.239Z,10.63
2022-10-13T03:23:04.237Z,11.00
2022-10-13T03:25:36.683Z,12.67
2022-10-13T03:28:04.699Z,12.03
2022-10-13T03:30:32.618Z,11.23
2022-10-13T03:33:00.694Z,12.50
2022-10-13T03:35:28.711Z,9.70
2022-10-13T03:37:56.656Z,10.23
2022-10-13T03:40:24.785Z,10.60
2022-10-13T03:42:54.130Z,10.23
2022-10-13T03:45:22.266Z,12.33
2022-10-13T03:47:50.307Z,11.10
2022-10-13T03:50:18.563Z,9.90
2022-10-13T03:52:46.787Z,11.03
2022-10-13T03:55:15.033Z,12.83
2022-10-13T03:57:43.001Z,11.70
2022-10-13T04:00:14.305Z,12.27
2022-10-13T04:02:42.352Z,12.37
2022-10-13T04:05:10.874Z,11.00
2022-10-13T04:07:38.888Z,12.10
2022-10-13T04:10:11.230Z,13.40
2022-10-13T04:12:44.658Z,11.40
2022-10-13T04:15:14.413Z,11.70
2022-10-13T04:17:42.474Z,11.03
2022-10-13T04:20:11.607Z,11.93
2022-10-13T04:22:39.742Z,10.37
2022-10-13T04:25:08.945Z,12.00
2022-10-13T04:27:38.403Z,11.50
2022-10-13T04:30:08.263Z,11.00
2022-10-13T04:32:37.671Z,9.87
2022-10-13T04:35:06.463Z,10.70
2022-10-13T04:37:34.516Z,11.07
2022-10-13T04:40:02.606Z,10.93
2022-10-13T04:42:30.526Z,12.43
2022-10-13T04:44:58.480Z,10.70
2022-10-13T04:47:26.474Z,11.13
2022-10-13T04:49:55.815Z,11.60
2022-10-13T04:52:23.724Z,12.10
2022-10-13T04:54:51.708Z,10.80
2022-10-13T04:57:19.643Z,12.03
2022-10-13T04:59:47.786Z,11.30
2022-10-13T05:02:15.724Z,11.30
2022-10-13T05:04:43.841Z,10.87
2022-10-13T05:07:18.047Z,10.97
2022-10-13T05:09:47.215Z,11.47
2022-10-13T05:12:15.236Z,12.03
2022-10-13T05:14:43.137Z,11.50
2022-10-13T05:17:11.228Z,10.90
2022-10-13T05:19:39.138Z,10.30
2022-10-13T05:22:07.259Z,12.93
2022-10-13T05:24:39.780Z,10.27
2022-10-13T05:27:10.334Z,12.60
2022-10-13T05:29:39.217Z,11.23
2022-10-13T05:32:08.193Z,12.17
2022-10-13T05:34:36.327Z,11.20
2022-10-13T05:37:04.909Z,11.00
2022-10-13T05:39:32.894Z,11.30
2022-10-13T05:42:02.377Z,10.37
2022-10-13T05:44:30.382Z,10.60
2022-10-13T05:46:58.416Z,11.00
2022-10-13T05:49:26.581Z,11.47
2022-10-13T05:51:58.239Z,10.97
2022-10-13T05:54:30.382Z,10.40
2022-10-13T05:57:02.006Z,11.93
2022-10-13T05:59:34.800Z,10.27
2022-10-13T06:02:03.236Z,11.20
2022-10-13T06:04:36.561Z,10.47
2022-10-13T06:07:04.754Z,10.30
2022-10-13T06:09:35.822Z,11.87
2022-10-13T06:12:04.083Z,11.90
2022-10-13T06:14:33.663Z,11.93
2022-10-13T06:17:01.583Z,11.43
2022-10-13T06:19:29.532Z,11.77
2022-10-13T06:22:02.594Z,10.93
2022-10-13T06:24:31.620Z,11.40
2022-10-13T06:26:59.878Z,11.13
2022-10-13T06:29:27.923Z,11.90
2022-10-13T06:31:57.274Z,10.37
2022-10-13T06:34:25.416Z,11.83
2022-10-13T06:36:53.722Z,11.00
2022-10-13T06:39:21.902Z,11.83
2022-10-13T06:41:50.872Z,11.30
2022-10-13T06:44:19.148Z,12.73
2022-10-13T06:46:47.075Z,10.97
2022-10-13T06:49:16.701Z,11.90
2022-10-13T06:51:44.675Z,10.83
2022-10-13T06:54:12.674Z,10.60
2022-10-13T06:56:40.578Z,12.43
2022-10-13T06:59:08.649Z,11.53
2022-10-13T07:01:40.628Z,11.70
2022-10-13T07:04:09.603Z,13.07
2022-10-13T07:06:39.023Z,14.00
2022-10-13T07:09:07.790Z,11.40
2022-10-13T07:11:36.517Z,12.93
2022-10-13T07:14:04.479Z,13.13
2022-10-13T07:16:33.035Z,13.93
2022-10-13T07:19:01.138Z,11.23
2022-10-13T07:21:29.166Z,12.60
2022-10-13T07:23:58.466Z,13.73
2022-10-13T07:26:26.799Z,12.40
2022-10-13T07:28:54.912Z,13.07
2022-10-13T07:31:23.254Z,12.73
2022-10-13T07:33:51.970Z,12.60
2022-10-13T07:36:20.612Z,12.63
2022-10-13T07:38:48.575Z,12.00
2022-10-13T07:41:18.590Z,11.23
2022-10-13T07:43:46.687Z,13.93
2022-10-13T07:46:15.310Z,13.10
2022-10-13T07:48:43.264Z,14.00
2022-10-13T07:51:13.435Z,12.37
2022-10-13T07:53:42.930Z,12.40
2022-10-13T07:56:12.993Z,12.73
2022-10-13T07:58:44.425Z,10.90
2022-10-13T08:01:13.234Z,13.00
2022-10-13T08:03:44.288Z,13.37
2022-10-13T08:06:15.524Z,13.87
2022-10-13T08:08:44.178Z,12.77
2022-10-13T08:11:16.640Z,12.40
2022-10-13T08:13:49.821Z,12.47
2022-10-13T08:16:17.993Z,12.13
2022-10-13T08:18:46.427Z,12.90
2022-10-13T08:21:45.740Z,13.77
2022-10-13T08:24:06.448Z,14.23
2022-10-13T08:26:35.090Z,13.10
2022-10-13T08:31:53.676Z,14.53
2022-10-13T08:34:22.139Z,13.23
2022-10-13T08:36:52.817Z,13.83
2022-10-13T08:39:21.020Z,13.17
2022-10-13T08:41:49.156Z,14.77
2022-10-13T08:47:21.590Z,12.63
2022-10-13T08:49:49.629Z,11.57
2022-10-13T08:52:21.231Z,13.40
2022-10-13T08:54:50.182Z,12.33
2022-10-13T08:57:19.496Z,13.57
2022-10-13T08:59:50.041Z,37.30
2022-10-13T09:02:25.103Z,13.90
2022-10-13T09:04:54.349Z,14.13
2022-10-13T09:07:27.161Z,13.23
2022-10-13T09:09:56.243Z,13.50
2022-10-13T09:12:25.206Z,13.30
2022-10-13T09:15:05.087Z,13.40
2022-10-13T09:17:33.992Z,14.10
2022-10-13T09:20:06.969Z,14.90
2022-10-13T09:22:36.971Z,12.83
2022-10-13T09:25:19.621Z,12.47
2022-10-13T09:27:50.437Z,13.20
2022-10-13T09:30:38.239Z,14.40
2022-10-13T09:33:22.409Z,13.27
2022-10-13T09:36:11.049Z,36.27
2022-10-13T09:38:40.127Z,15.80
2022-10-13T09:41:21.776Z,16.07
2022-10-13T09:44:07.273Z,18.40
2022-10-13T09:46:40.422Z,19.57
2022-10-13T09:49:26.454Z,16.40
2022-10-13T09:52:01.202Z,15.50
2022-10-13T09:54:37.983Z,15.17
2022-10-13T09:57:13.835Z,14.17
2022-10-13T09:59:47.232Z,16.37
2022-10-13T10:02:26.562Z,16.17
2022-10-13T10:05:00.599Z,15.07
2022-10-13T10:07:32.741Z,17.97
2022-10-13T10:10:06.153Z,18.47
2022-10-13T10:12:38.333Z,16.87
2022-10-13T10:15:18.835Z,19.57
2022-10-13T10:17:55.128Z,19.13
2022-10-13T10:20:45.911Z,18.40
2022-10-13T10:23:20.244Z,19.20
2022-10-13T10:25:54.610Z,18.90
2022-10-13T10:28:51.393Z,19.33
2022-10-13T10:31:34.646Z,19.33
2022-10-13T10:34:28.407Z,20.87
2022-10-13T10:37:13.381Z,22.20
2022-10-13T10:39:50.311Z,18.67
2022-10-13T10:42:46.298Z,20.10
2022-10-13T10:45:19.777Z,18.17
2022-10-13T10:47:51.468Z,23.00
2022-10-13T10:50:22.091Z,22.33
2022-10-13T10:52:57.787Z,23.13
2022-10-13T10:55:32.487Z,23.90
2022-10-13T10:58:09.743Z,22.03
2022-10-13T11:00:45.155Z,22.83
2022-10-13T11:03:23.212Z,22.83
2022-10-13T11:06:04.869Z,22.90
2022-10-13T11:08:41.909Z,22.13
2022-10-13T11:11:39.339Z,21.73
2022-10-13T11:14:30.124Z,20.83
2022-10-13T11:17:18.814Z,22.30
2022-10-13T11:19:51.452Z,22.97
2022-10-13T11:22:26.338Z,23.77
2022-10-13T11:25:39.455Z,20.80
2022-10-13T11:28:40.811Z,28.43
2022-10-13T11:31:25.360Z,25.97
2022-10-13T11:33:56.952Z,24.27
2022-10-13T11:36:49.719Z,22.70
2022-10-13T11:39:41.415Z,23.53
2022-10-13T11:42:22.909Z,21.20
2022-10-13T11:44:56.157Z,21.90
2022-10-13T11:47:53.931Z,23.47
2022-10-13T11:50:29.147Z,23.10
2022-10-13T11:53:11.917Z,33.37
2022-10-13T11:55:49.159Z,24.07
2022-10-13T11:58:19.732Z,22.87
2022-10-13T12:00:52.615Z,22.40
2022-10-13T12:03:23.034Z,21.20
2022-10-13T12:05:52.314Z,21.40
2022-10-13T12:08:21.802Z,20.67
2022-10-13T12:10:57.335Z,20.83
2022-10-13T12:13:27.527Z,23.17
2022-10-13T12:16:01.064Z,22.00
2022-10-13T12:18:33.831Z,21.83
2022-10-13T12:21:04.327Z,20.77
2022-10-13T12:23:33.486Z,20.07
2022-10-13T12:26:03.431Z,23.43
2022-10-13T12:28:51.117Z,20.80
2022-10-13T12:31:22.673Z,22.20
2022-10-13T12:33:55.187Z,22.23
2022-10-13T12:36:29.341Z,21.60
2022-10-13T12:39:01.852Z,24.17
2022-10-13T12:41:34.280Z,22.20
2022-10-13T12:44:05.802Z,21.27
2022-10-13T12:46:40.120Z,24.27
2022-10-13T12:49:08.418Z,20.73
2022-10-13T12:51:39.400Z,21.63
2022-10-13T12:54:10.147Z,21.40
2022-10-13T12:56:43.878Z,21.43
2022-10-13T12:59:18.412Z,22.50
2022-10-13T13:01:48.046Z,23.10
2022-10-13T13:04:28.479Z,22.43
2022-10-13T13:06:57.790Z,25.07
2022-10-13T13:09:28.646Z,24.90
2022-10-13T13:12:28.866Z,24.27
2022-10-13T13:14:58.075Z,26.03
2022-10-13T13:17:57.268Z,23.50
2022-10-13T13:20:23.203Z,23.10
2022-10-13T13:22:51.801Z,24.87
2022-10-13T13:25:20.207Z,23.73
2022-10-13T13:27:49.634Z,25.47
2022-10-13T13:30:20.716Z,25.43
2022-10-13T13:32:49.909Z,27.13
2022-10-13T13:35:18.529Z,27.30
2022-10-13T13:37:49.730Z,24.80
2022-10-13T13:40:19.852Z,26.10
2022-10-13T13:42:49.164Z,27.27
2022-10-13T13:45:19.503Z,28.67
2022-10-13T13:47:47.938Z,26.93
2022-10-13T13:50:19.865Z,28.83
2022-10-13T13:52:48.356Z,32.50
2022-10-13T13:55:16.750Z,35.73
2022-10-13T13:57:45.227Z,31.40
2022-10-13T14:00:16.771Z,36.07
2022-10-13T14:02:46.012Z,29.30
2022-10-13T14:05:14.483Z,32.80
2022-10-13T14:07:49.208Z,28.53
2022-10-13T14:10:17.311Z,28.17
2022-10-13T14:12:45.309Z,29.67
2022-10-13T14:15:14.738Z,31.13
2022-10-13T14:17:42.716Z,28.13
2022-10-13T14:20:11.475Z,26.67
2022-10-13T14:22:40.144Z,28.97
2022-10-13T14:25:09.276Z,26.67
2022-10-13T14:27:37.990Z,31.20
2022-10-13T14:30:07.147Z,29.53
2022-10-13T14:32:38.247Z,29.00
2022-10-13T14:35:07.278Z,29.10
2022-10-13T14:37:35.757Z,33.13
2022-10-13T14:40:04.153Z,28.57
2022-10-13T14:42:32.175Z,28.73
2022-10-13T14:45:00.138Z,29.83
2022-10-13T14:47:28.434Z,30.23
2022-10-13T14:49:57.816Z,29.90
2022-10-13T14:52:25.760Z,28.60
2022-10-13T14:54:53.876Z,29.43
2022-10-13T14:57:22.589Z,32.13
2022-10-13T14:59:50.922Z,33.40
2022-10-13T15:02:19.070Z,28.50
2022-10-13T15:04:47.109Z,28.50
2022-10-13T15:07:16.675Z,27.37
2022-10-13T15:09:52.657Z,29.10
2022-10-13T15:12:21.809Z,26.27
2022-10-13T15:14:49.975Z,27.07
2022-10-13T15:17:18.012Z,27.70
2022-10-13T15:19:49.028Z,34.70
2022-10-13T15:22:18.702Z,36.63
2022-10-13T15:24:46.937Z,52.27
2022-10-13T15:27:14.948Z,32.23
2022-10-13T15:29:43.073Z,31.20
2022-10-13T15:32:12.644Z,28.77
2022-10-13T15:34:41.032Z,27.43
2022-10-13T15:37:09.272Z,28.03
2022-10-13T15:39:38.616Z,29.10
2022-10-13T15:42:07.043Z,28.73
2022-10-13T15:44:57.468Z,29.37
2022-10-13T15:47:22.988Z,29.37
2022-10-13T15:49:51.064Z,28.90
2022-10-13T15:52:19.507Z,29.50
2022-10-13T15:54:51.435Z,30.90
2022-10-13T15:57:19.543Z,29.90
2022-10-13T15:59:49.059Z,24.73
2022-10-13T16:02:19.457Z,26.60
2022-10-13T16:04:47.825Z,26.00
2022-10-13T16:07:15.900Z,24.93
2022-10-13T16:09:43.884Z,26.40
2022-10-13T16:12:13.228Z,24.23
2022-10-13T16:14:41.199Z,25.70
2022-10-13T16:17:09.803Z,42.23
2022-10-13T16:19:37.808Z,35.00
2022-10-13T16:22:05.755Z,30.37
2022-10-13T16:24:34.203Z,24.83
2022-10-13T16:27:03.452Z,25.07
2022-10-13T16:29:32.903Z,27.30
2022-10-13T16:32:01.072Z,26.90
2022-10-13T16:34:29.244Z,27.13
2022-10-13T16:36:57.441Z,24.23
2022-10-13T16:39:26.600Z,26.97
2022-10-13T16:41:54.584Z,35.43
2022-10-13T16:44:22.787Z,26.67
2022-10-13T16:46:53.773Z,29.87
2022-10-13T16:49:21.786Z,27.00
2022-10-13T16:51:49.904Z,25.53
2022-10-13T16:54:18.066Z,27.17
2022-10-13T16:56:46.861Z,23.50
2022-10-13T16:59:14.847Z,29.40
2022-10-13T17:01:44.494Z,27.93
2022-10-13T17:04:17.244Z,26.93
2022-10-13T17:06:47.990Z,25.20
2022-10-13T17:09:16.323Z,27.40
2022-10-13T17:11:44.291Z,26.60
2022-10-13T17:14:12.393Z,26.33
2022-10-13T17:16:40.409Z,24.33
2022-10-13T17:19:08.795Z,37.90
2022-10-13T17:21:38.435Z,28.97
2022-10-13T17:24:07.804Z,98.20
2022-10-13T17:26:36.602Z,25.13
2022-10-13T17:29:04.963Z,25.00
2022-10-13T17:31:33.250Z,23.03
2022-10-13T17:34:02.036Z,24.50
2022-10-13T17:36:34.076Z,35.70
2022-10-13T17:39:07.064Z,33.87
2022-10-13T17:41:36.110Z,27.90
2022-10-13T17:44:05.306Z,28.30
2022-10-13T17:46:37.293Z,26.97
2022-10-13T17:49:07.173Z,34.70
2022-10-13T17:51:35.362Z,40.57
2022-10-13T17:54:05.347Z,32.00
2022-10-13T17:56:33.480Z,29.43
2022-10-13T17:59:02.088Z,28.33
2022-10-13T18:01:33.623Z,25.90
2022-10-13T18:04:03.893Z,28.80
2022-10-13T18:06:38.672Z,51.77
2022-10-13T18:09:09.761Z,49.50
2022-10-13T18:11:38.626Z,38.57
2022-10-13T18:14:07.762Z,34.67
2022-10-13T18:16:37.241Z,31.53
2022-10-13T18:19:06.515Z,32.37
2022-10-13T18:21:34.483Z,27.13
2022-10-13T18:24:03.290Z,26.67
2022-10-13T18:26:34.918Z,25.30
2022-10-13T18:29:03.616Z,26.13
2022-10-13T18:31:33.495Z,24.83
2022-10-13T18:34:03.402Z,34.63
2022-10-13T18:36:33.183Z,40.50
2022-10-13T18:39:07.351Z,48.70
2022-10-13T18:41:37.655Z,34.20
2022-10-13T18:44:06.070Z,24.93
2022-10-13T18:46:35.540Z,31.70
2022-10-13T18:49:04.070Z,30.93
2022-10-13T18:51:36.299Z,29.63
2022-10-13T18:54:05.529Z,26.37
2022-10-13T18:56:36.623Z,30.37
2022-10-13T18:59:07.657Z,26.00
2022-10-13T19:01:37.873Z,27.20
2022-10-13T19:04:06.641Z,23.80
2022-10-13T19:06:35.444Z,25.40
2022-10-13T19:09:05.587Z,24.20
2022-10-13T19:11:34.201Z,27.57
2022-10-13T19:14:02.966Z,99.00
2022-10-13T19:16:33.078Z,27.10
2022-10-13T19:19:01.092Z,35.50
2022-10-13T19:21:29.321Z,25.17
2022-10-13T19:24:00.398Z,30.50
2022-10-13T19:26:30.752Z,28.37
2022-10-13T19:29:02.256Z,30.77
2022-10-13T19:31:33.401Z,23.13
2022-10-13T19:34:02.467Z,24.87
2022-10-13T19:36:32.364Z,26.20
2022-10-13T19:39:01.208Z,25.43
2022-10-13T19:41:30.770Z,26.60
2022-10-13T19:44:06.187Z,23.47
2022-10-13T19:46:36.805Z,23.50
2022-10-13T19:49:05.347Z,23.07
2022-10-13T19:51:33.896Z,23.20
2022-10-13T19:54:01.952Z,21.40
2022-10-13T19:56:32.827Z,21.70
2022-10-13T19:59:01.100Z,22.10
2022-10-13T20:01:29.378Z,23.07
2022-10-13T20:03:59.203Z,22.93
2022-10-13T20:06:27.479Z,23.77
2022-10-13T20:08:55.448Z,22.97
2022-10-13T20:11:24.478Z,23.47
2022-10-13T20:13:54.271Z,25.40
2022-10-13T20:16:24.236Z,23.57
2022-10-13T20:18:53.456Z,22.93
2022-10-13T20:21:23.538Z,23.63
2022-10-13T20:23:52.231Z,20.90
2022-10-13T20:26:21.198Z,19.47
2022-10-13T20:28:50.290Z,19.20
2022-10-13T20:31:21.107Z,22.40
2022-10-13T20:33:50.373Z,23.13
2022-10-13T20:36:20.039Z,21.80
2022-10-13T20:38:50.198Z,24.43
2022-10-13T20:41:20.714Z,25.93
2022-10-13T20:43:49.856Z,23.93
2022-10-13T20:46:19.867Z,23.77
2022-10-13T20:49:10.044Z,21.03
2022-10-13T20:51:37.046Z,26.77
2022-10-13T20:54:06.730Z,24.57
2022-10-13T20:56:35.620Z,24.43
2022-10-13T20:59:04.424Z,26.90
2022-10-13T21:01:32.942Z,25.77
2022-10-13T21:04:01.081Z,26.87
2022-10-13T21:06:29.043Z,27.70
2022-10-13T21:08:57.317Z,24.60
2022-10-13T21:11:26.692Z,24.47
2022-10-13T21:13:54.835Z,27.83
2022-10-13T21:16:24.732Z,25.97
2022-10-13T21:18:53.158Z,28.00
2022-10-13T21:21:22.973Z,27.83
2022-10-13T21:23:51.702Z,26.60
2022-10-13T21:26:21.808Z,31.50
2022-10-13T21:28:52.333Z,32.07
2022-10-13T21:31:22.341Z,31.53
2022-10-13T21:33:51.173Z,29.60
2022-10-13T21:36:20.527Z,28.60
2022-10-13T21:38:51.387Z,29.57
2022-10-13T21:41:19.480Z,34.50
2022-10-13T21:43:47.440Z,30.00
2022-10-13T21:46:19.153Z,29.40
2022-10-13T21:48:48.726Z,32.00
2022-10-13T21:51:22.471Z,28.70
2022-10-13T21:53:51.743Z,25.87
2022-10-13T21:56:20.384Z,27.63
2022-10-13T21:58:49.030Z,31.17
2022-10-13T22:01:19.959Z,33.47
2022-10-13T22:03:49.167Z,31.80
2022-10-13T22:06:19.593Z,30.50
2022-10-13T22:08:49.540Z,32.83
2022-10-13T22:11:18.699Z,30.50
2022-10-13T22:13:47.072Z,32.47
2022-10-13T22:16:19.006Z,31.77
2022-10-13T22:18:47.970Z,29.80
2022-10-13T22:21:18.885Z,32.10
2022-10-13T22:23:47.836Z,31.07
2022-10-13T22:26:16.875Z,28.43
2022-10-13T22:28:45.092Z,31.87
2022-10-13T22:31:14.287Z,30.37
2022-10-13T22:33:44.548Z,30.00
2022-10-13T22:36:17.729Z,31.67
2022-10-13T22:38:46.429Z,29.73
2022-10-13T22:41:15.787Z,30.07
2022-10-13T22:43:44.403Z,33.23
2022-10-13T22:46:13.292Z,31.00
2022-10-13T22:48:42.839Z,29.07
2022-10-13T22:51:12.743Z,28.63
2022-10-13T22:53:41.119Z,29.83
2022-10-13T22:56:10.746Z,32.33
2022-10-13T22:58:38.799Z,30.97
2022-10-13T23:01:08.562Z,28.07
2022-10-13T23:03:37.264Z,31.20
2022-10-13T23:06:08.097Z,29.17
2022-10-13T23:08:36.318Z,32.17
2022-10-13T23:11:04.343Z,33.53
2022-10-13T23:13:32.298Z,32.57
2022-10-13T23:16:04.047Z,28.40
2022-10-13T23:18:32.288Z,30.27
2022-10-13T23:21:00.251Z,31.43
2022-10-13T23:23:29.613Z,31.03
2022-10-13T23:25:57.647Z,34.73
2022-10-13T23:28:25.817Z,35.07
2022-10-13T23:30:53.815Z,31.30
2022-10-13T23:33:21.800Z,36.23
2022-10-13T23:35:55.629Z,33.97
2022-10-13T23:38:23.663Z,32.50
2022-10-13T23:40:53.319Z,28.90
2022-10-13T23:43:21.857Z,34.77
2022-10-13T23:45:49.867Z,32.93
2022-10-13T23:48:17.835Z,33.20
2022-10-13T23:50:45.927Z,31.33
2022-10-13T23:53:13.878Z,28.57
2022-10-13T23:55:41.972Z,30.40
2022-10-13T23:58:11.656Z,30.93
